Time;durP1;ratioP1;P1;durP2;ratioP2;P2;SDS_P1;SDS_P2;PMS_P1;PMS_P2;Temp;Humidity;BMP_temperature;BMP_pressure;BME280_temperature;BME280_humidity;BME280_pressure;Samples;Min_cycle;Max_cycle;Signal;HPM_P1;HPM_P2
2023/04/05 00:01:42;;;;;;;64.87;35.73;;;;;;;;;;5110338;27;20198;-83
2023/04/05 00:04:08;;;;;;;60.37;34.60;;;;;;;;;;5124124;27;20192;-83
2023/04/05 00:06:36;;;;;;;60.23;33.40;;;;;;;;;;5106190;28;20181;-83
2023/04/05 00:09:03;;;;;;;62.07;35.47;;;;;;;;;;5099185;27;20625;-83
2023/04/05 00:11:30;;;;;;;67.27;35.17;;;;;;;;;;5108505;27;20171;-83
2023/04/05 00:13:56;;;;;;;61.27;33.77;;;;;;;;;;5117154;27;20182;-83
2023/04/05 00:16:22;;;;;;;61.93;36.83;;;;;;;;;;5103093;28;20202;-83
2023/04/05 00:18:50;;;;;;;68.67;38.97;;;;;;;;;;5101913;27;20193;-83
2023/04/05 00:21:20;;;;;;;76.37;39.17;;;;;;;;;;5127318;27;20182;-83
2023/04/05 00:23:47;;;;;;;71.43;39.23;;;;;;;;;;5096883;28;20181;-84
2023/04/05 00:26:13;;;;;;;75.73;38.73;;;;;;;;;;5110295;27;20219;-83
2023/04/05 00:28:40;;;;;;;69.03;38.80;;;;;;;;;;5114107;27;20203;-83
2023/04/05 00:31:06;;;;;;;68.20;39.57;;;;;;;;;;5108510;28;20189;-84
2023/04/05 00:33:32;;;;;;;69.23;40.13;;;;;;;;;;5108471;28;20534;-84
2023/04/05 00:35:58;;;;;;;69.00;40.40;;;;;;;;;;5112270;28;20197;-83
2023/04/05 00:38:24;;;;;;;77.47;41.53;;;;;;;;;;5094615;28;20254;-83
2023/04/05 00:40:50;;;;;;;70.47;40.23;;;;;;;;;;5113738;28;20171;-83
2023/04/05 00:43:16;;;;;;;67.80;38.97;;;;;;;;;;5126865;28;20186;-84
2023/04/05 00:45:42;;;;;;;69.03;37.77;;;;;;;;;;5113542;28;20175;-83
2023/04/05 00:48:08;;;;;;;70.10;38.53;;;;;;;;;;5118048;27;20657;-83
2023/04/05 00:50:34;;;;;;;71.87;40.73;;;;;;;;;;5099338;27;20246;-83
2023/04/05 00:53:00;;;;;;;63.20;39.27;;;;;;;;;;5111677;27;20639;-83
2023/04/05 00:55:26;;;;;;;67.87;40.47;;;;;;;;;;5104875;28;20192;-83
2023/04/05 00:57:55;;;;;;;68.50;39.90;;;;;;;;;;5105854;27;20670;-83
2023/04/05 01:00:22;;;;;;;75.80;41.33;;;;;;;;;;5130056;27;20181;-83
2023/04/05 01:03:02;;;;;;;70.20;39.23;;;;;;;;;;5118051;27;20186;-83
2023/04/05 01:05:40;;;;;;;70.43;38.80;;;;;;;;;;5107107;27;20174;-83
2023/04/05 01:08:25;;;;;;;67.27;38.90;;;;;;;;;;5114057;27;20191;-83
2023/04/05 01:10:54;;;;;;;72.33;40.13;;;;;;;;;;5111621;27;20209;-83
2023/04/05 01:13:20;;;;;;;63.23;38.50;;;;;;;;;;5105443;27;20184;-83
2023/04/05 01:15:46;;;;;;;69.40;39.90;;;;;;;;;;5110192;28;20219;-84
2023/04/05 01:18:13;;;;;;;73.43;38.50;;;;;;;;;;5104021;27;20206;-84
2023/04/05 01:20:46;;;;;;;64.77;36.77;;;;;;;;;;5099284;27;20197;-83
2023/04/05 01:23:37;;;;;;;63.00;36.93;;;;;;;;;;5097256;28;20177;-83
2023/04/05 01:26:25;;;;;;;83.13;38.63;;;;;;;;;;5088097;28;20190;-83
2023/04/05 01:29:09;;;;;;;65.13;37.27;;;;;;;;;;5114726;27;20174;-83
2023/04/05 01:32:14;;;;;;;66.70;37.73;;;;;;;;;;5130360;27;20184;-83
2023/04/05 01:34:40;;;;;;;73.23;36.70;;;;;;;;;;5031723;28;20186;-83
2023/04/05 01:37:08;;;;;;;77.13;39.33;;;;;;;;;;5014866;28;20243;-83
2023/04/05 01:39:35;;;;;;;67.27;37.50;;;;;;;;;;5009231;28;20202;-83
2023/04/05 01:42:01;;;;;;;69.50;38.23;;;;;;;;;;5017960;28;20190;-83
2023/04/05 01:44:28;;;;;;;64.60;37.67;;;;;;;;;;5031795;28;20179;-83
2023/04/05 01:46:54;;;;;;;74.53;39.27;;;;;;;;;;5031107;28;20232;-83
2023/04/05 01:49:20;;;;;;;63.40;36.13;;;;;;;;;;5014429;28;20181;-83
2023/04/05 01:51:46;;;;;;;70.70;38.83;;;;;;;;;;5016547;28;20196;-84
2023/04/05 01:54:12;;;;;;;61.97;37.50;;;;;;;;;;5027623;28;20632;-83
2023/04/05 01:56:38;;;;;;;69.97;39.90;;;;;;;;;;5012380;28;20221;-84
2023/04/05 01:59:04;;;;;;;64.23;36.53;;;;;;;;;;5015771;28;20192;-84
2023/04/05 02:01:30;;;;;;;70.13;35.53;;;;;;;;;;5014756;28;20668;-84
2023/04/05 02:03:56;;;;;;;67.90;36.37;;;;;;;;;;5025192;28;20186;-84
2023/04/05 02:06:22;;;;;;;69.67;38.00;;;;;;;;;;5091238;28;20497;-84
2023/04/05 02:08:48;;;;;;;67.97;38.80;;;;;;;;;;5112519;27;20186;-83
2023/04/05 02:11:14;;;;;;;67.43;37.30;;;;;;;;;;5105772;28;20268;-83
2023/04/05 02:13:40;;;;;;;63.93;35.17;;;;;;;;;;5103769;28;20186;-83
2023/04/05 02:16:06;;;;;;;63.20;36.00;;;;;;;;;;5121744;27;20230;-83
2023/04/05 02:18:32;;;;;;;63.00;35.93;;;;;;;;;;5113862;27;20186;-82
2023/04/05 02:21:02;;;;;;;60.80;35.63;;;;;;;;;;5110920;27;20220;-83
2023/04/05 02:23:29;;;;;;;61.87;35.53;;;;;;;;;;5114742;28;20265;-83
2023/04/05 02:25:55;;;;;;;66.83;37.47;;;;;;;;;;5103774;28;20185;-83
2023/04/05 02:28:21;;;;;;;66.97;36.17;;;;;;;;;;5122716;27;20188;-83
2023/04/05 02:30:47;;;;;;;68.93;37.90;;;;;;;;;;5100327;27;20519;-83
2023/04/05 02:33:13;;;;;;;64.80;37.73;;;;;;;;;;5112161;27;20175;-85
2023/04/05 02:35:39;;;;;;;61.23;34.73;;;;;;;;;;5124562;27;20626;-84
2023/04/05 02:38:05;;;;;;;68.77;36.60;;;;;;;;;;5108604;27;20233;-84
2023/04/05 02:40:32;;;;;;;67.27;37.17;;;;;;;;;;5106011;28;20185;-84
2023/04/05 02:42:58;;;;;;;72.40;37.63;;;;;;;;;;5098979;28;20185;-85
2023/04/05 02:45:26;;;;;;;69.47;37.60;;;;;;;;;;5100443;28;20213;-85
2023/04/05 02:47:52;;;;;;;67.00;39.23;;;;;;;;;;5096972;27;20182;-85
2023/04/05 02:50:19;;;;;;;72.97;40.03;;;;;;;;;;5118338;27;20254;-84
2023/04/05 02:52:46;;;;;;;77.07;43.43;;;;;;;;;;5110160;27;20177;-84
2023/04/05 02:55:13;;;;;;;71.33;38.70;;;;;;;;;;5128209;27;20178;-84
2023/04/05 02:57:39;;;;;;;66.53;40.40;;;;;;;;;;5113570;27;20204;-85
2023/04/05 03:00:07;;;;;;;77.57;41.23;;;;;;;;;;5131502;27;20262;-84
2023/04/05 03:02:33;;;;;;;73.90;39.83;;;;;;;;;;5098733;27;20293;-85
2023/04/05 03:05:01;;;;;;;71.40;40.40;;;;;;;;;;5119172;27;20178;-85
2023/04/05 03:07:28;;;;;;;74.97;41.53;;;;;;;;;;5123986;27;20235;-84
2023/04/05 03:09:54;;;;;;;73.37;43.13;;;;;;;;;;5115336;27;20180;-84
2023/04/05 03:12:20;;;;;;;72.67;42.57;;;;;;;;;;5130160;27;20231;-84
2023/04/05 03:14:46;;;;;;;78.87;44.87;;;;;;;;;;5098035;27;20234;-84
2023/04/05 03:17:12;;;;;;;83.70;46.47;;;;;;;;;;5097120;28;20191;-84
2023/04/05 03:19:38;;;;;;;74.20;42.83;;;;;;;;;;5118039;27;20208;-84
2023/04/05 03:22:06;;;;;;;83.57;45.77;;;;;;;;;;5099976;27;20187;-84
2023/04/05 03:24:32;;;;;;;85.27;47.70;;;;;;;;;;5117163;27;20180;-85
2023/04/05 03:27:02;;;;;;;78.67;45.70;;;;;;;;;;5115824;27;20227;-85
2023/04/05 03:29:31;;;;;;;77.03;45.03;;;;;;;;;;5103961;27;20186;-83
2023/04/05 03:32:00;;;;;;;74.30;43.67;;;;;;;;;;5112566;27;20181;-85
2023/04/05 03:34:27;;;;;;;76.63;44.97;;;;;;;;;;5099559;27;20178;-84
2023/04/05 03:36:54;;;;;;;74.70;43.27;;;;;;;;;;5102245;27;20204;-85
2023/04/05 03:39:20;;;;;;;81.63;44.87;;;;;;;;;;5109160;27;20205;-84
2023/04/05 03:41:46;;;;;;;78.50;45.27;;;;;;;;;;5127141;27;20623;-84
2023/04/05 03:44:12;;;;;;;85.67;47.07;;;;;;;;;;5105685;28;20185;-84
2023/04/05 03:46:38;;;;;;;77.43;44.87;;;;;;;;;;5108546;27;20331;-84
2023/04/05 03:49:05;;;;;;;72.20;45.00;;;;;;;;;;5125196;27;20186;-83
2023/04/05 03:51:31;;;;;;;77.30;46.43;;;;;;;;;;5105102;27;20178;-83
2023/04/05 03:53:57;;;;;;;80.27;46.30;;;;;;;;;;5113513;27;21331;-84
2023/04/05 03:56:24;;;;;;;84.63;47.30;;;;;;;;;;5096471;27;20519;-84
2023/04/05 03:58:51;;;;;;;79.93;46.00;;;;;;;;;;5109327;27;20212;-85
2023/04/05 04:01:17;;;;;;;72.23;43.03;;;;;;;;;;5108150;28;20187;-84
2023/04/05 04:03:43;;;;;;;83.33;45.80;;;;;;;;;;5100367;27;20263;-84
2023/04/05 04:06:10;;;;;;;72.80;43.33;;;;;;;;;;5098675;27;20519;-84
2023/04/05 04:08:36;;;;;;;80.00;44.73;;;;;;;;;;5096007;28;20184;-83
2023/04/05 04:11:02;;;;;;;84.87;46.57;;;;;;;;;;5102258;28;20668;-83
2023/04/05 04:13:28;;;;;;;76.33;43.60;;;;;;;;;;5117794;27;20186;-83
2023/04/05 04:15:55;;;;;;;74.37;44.17;;;;;;;;;;5106938;27;20216;-84
2023/04/05 04:18:21;;;;;;;71.90;44.27;;;;;;;;;;5112010;27;20206;-83
2023/04/05 04:20:47;;;;;;;83.87;44.00;;;;;;;;;;5115668;27;20193;-83
2023/04/05 04:23:13;;;;;;;74.20;44.73;;;;;;;;;;5112892;27;20223;-84
2023/04/05 04:25:40;;;;;;;78.63;44.37;;;;;;;;;;5119706;27;20225;-83
2023/04/05 04:28:08;;;;;;;75.63;43.67;;;;;;;;;;5102171;28;20213;-83
2023/04/05 04:30:34;;;;;;;74.97;43.67;;;;;;;;;;5097517;28;20226;-84
2023/04/05 04:33:03;;;;;;;78.80;41.53;;;;;;;;;;5111390;28;20189;-83
2023/04/05 04:35:32;;;;;;;76.67;44.70;;;;;;;;;;5098878;28;20623;-84
2023/04/05 04:38:02;;;;;;;78.23;44.67;;;;;;;;;;5104918;28;20270;-83
2023/04/05 04:40:31;;;;;;;79.73;44.43;;;;;;;;;;5099693;28;20679;-84
2023/04/05 04:42:58;;;;;;;79.00;45.70;;;;;;;;;;5100230;28;20187;-84
2023/04/05 04:45:25;;;;;;;78.57;43.93;;;;;;;;;;5122051;28;20213;-83
2023/04/05 04:47:52;;;;;;;69.83;43.73;;;;;;;;;;5114948;28;20176;-83
2023/04/05 04:50:19;;;;;;;74.30;44.20;;;;;;;;;;5108519;28;20699;-84
2023/04/05 04:52:45;;;;;;;65.33;40.97;;;;;;;;;;5111603;28;20654;-83
2023/04/05 04:55:13;;;;;;;76.13;44.10;;;;;;;;;;5108513;28;20185;-84
2023/04/05 04:57:40;;;;;;;72.90;44.13;;;;;;;;;;5116695;28;20205;-84
2023/04/05 05:00:11;;;;;;;74.33;43.07;;;;;;;;;;5103319;28;21056;-83
2023/04/05 05:02:37;;;;;;;69.53;41.77;;;;;;;;;;5105426;28;20289;-84
2023/04/05 05:05:03;;;;;;;75.30;42.63;;;;;;;;;;5094706;28;20605;-84
2023/04/05 05:07:29;;;;;;;72.40;44.30;;;;;;;;;;5096788;28;20187;-84
2023/04/05 05:09:55;;;;;;;78.10;43.40;;;;;;;;;;5115962;28;20257;-84
2023/04/05 05:12:22;;;;;;;68.60;41.60;;;;;;;;;;5116055;28;20230;-84
2023/04/05 05:14:48;;;;;;;68.87;41.33;;;;;;;;;;5128555;28;20214;-84
2023/04/05 05:17:14;;;;;;;66.27;39.57;;;;;;;;;;5099090;28;20191;-83
2023/04/05 05:19:40;;;;;;;65.80;41.57;;;;;;;;;;5101225;28;20225;-83
2023/04/05 05:22:06;;;;;;;67.90;42.87;;;;;;;;;;5101266;28;20726;-83
2023/04/05 05:24:32;;;;;;;72.10;42.27;;;;;;;;;;5112755;28;20195;-83
2023/04/05 05:26:58;;;;;;;74.27;42.00;;;;;;;;;;5102388;28;20511;-83
2023/04/05 05:29:24;;;;;;;72.03;42.20;;;;;;;;;;5113488;28;20218;-84
2023/04/05 05:31:50;;;;;;;75.40;42.87;;;;;;;;;;5105969;27;20176;-83
2023/04/05 05:34:18;;;;;;;73.63;40.80;;;;;;;;;;5104049;28;20221;-84
2023/04/05 05:36:44;;;;;;;74.60;43.10;;;;;;;;;;5109591;27;20716;-83
2023/04/05 05:39:10;;;;;;;73.13;44.47;;;;;;;;;;5103428;27;20176;-83
2023/04/05 05:41:36;;;;;;;68.33;40.00;;;;;;;;;;5101658;28;20533;-83
2023/04/05 05:44:02;;;;;;;66.53;40.77;;;;;;;;;;5104784;28;20191;-83
2023/04/05 05:46:28;;;;;;;70.07;39.27;;;;;;;;;;5108824;27;20179;-84
2023/04/05 05:48:54;;;;;;;66.00;39.60;;;;;;;;;;5123394;27;20441;-83
2023/04/05 05:51:20;;;;;;;64.53;38.43;;;;;;;;;;5097054;27;20521;-83
2023/04/05 05:53:46;;;;;;;84.43;40.93;;;;;;;;;;5116771;27;20261;-83
2023/04/05 05:56:12;;;;;;;89.93;44.10;;;;;;;;;;5108736;28;20624;-83
2023/04/05 05:58:39;;;;;;;75.40;41.10;;;;;;;;;;5104227;28;20221;-83
2023/04/05 06:01:06;;;;;;;71.53;40.10;;;;;;;;;;5119999;27;20261;-83
2023/04/05 06:03:32;;;;;;;68.00;40.00;;;;;;;;;;5117719;27;20182;-83
2023/04/05 06:05:59;;;;;;;79.70;41.27;;;;;;;;;;5099111;27;20248;-82
2023/04/05 06:08:29;;;;;;;84.63;42.63;;;;;;;;;;5100986;28;20201;-83
2023/04/05 06:10:55;;;;;;;87.47;40.63;;;;;;;;;;5126331;27;20195;-83
2023/04/05 06:13:21;;;;;;;73.57;40.87;;;;;;;;;;5111289;28;20180;-83
2023/04/05 06:15:47;;;;;;;71.13;41.93;;;;;;;;;;5104402;28;20565;-82
2023/04/05 06:18:13;;;;;;;75.73;43.37;;;;;;;;;;5113420;27;20218;-83
2023/04/05 06:20:39;;;;;;;75.13;41.80;;;;;;;;;;5100824;28;20172;-83
2023/04/05 06:23:09;;;;;;;78.10;47.27;;;;;;;;;;5110374;27;20186;-83
2023/04/05 06:25:35;;;;;;;80.57;43.50;;;;;;;;;;5111089;27;20530;-83
2023/04/05 06:28:04;;;;;;;76.03;42.63;;;;;;;;;;5129513;27;20225;-83
2023/04/05 06:30:31;;;;;;;70.90;43.83;;;;;;;;;;5113003;27;20273;-82
2023/04/05 06:32:57;;;;;;;86.97;44.40;;;;;;;;;;5130808;27;20168;-82
2023/04/05 06:35:24;;;;;;;82.67;43.03;;;;;;;;;;5119831;27;20178;-83
2023/04/05 06:37:50;;;;;;;73.77;42.87;;;;;;;;;;5124621;27;20203;-82
2023/04/05 06:40:16;;;;;;;72.17;43.27;;;;;;;;;;5127570;27;20191;-82
2023/04/05 06:42:42;;;;;;;68.23;38.30;;;;;;;;;;5100800;27;20273;-82
2023/04/05 06:45:09;;;;;;;59.43;37.27;;;;;;;;;;5132590;27;20514;-82
2023/04/05 06:47:35;;;;;;;71.67;43.50;;;;;;;;;;5100459;28;20198;-82
2023/04/05 06:50:01;;;;;;;69.33;40.23;;;;;;;;;;5103671;28;20534;-83
2023/04/05 06:52:28;;;;;;;63.67;38.00;;;;;;;;;;5124160;27;20182;-82
2023/04/05 06:54:55;;;;;;;65.13;37.40;;;;;;;;;;5110438;28;20175;-83
2023/04/05 06:57:21;;;;;;;66.07;39.53;;;;;;;;;;5113678;27;20241;-83
2023/04/05 06:59:47;;;;;;;74.17;37.93;;;;;;;;;;5095692;28;20215;-83
2023/04/05 07:02:13;;;;;;;63.30;37.70;;;;;;;;;;5103710;28;20183;-84
2023/04/05 07:04:40;;;;;;;61.83;36.90;;;;;;;;;;5105625;27;20223;-84
2023/04/05 07:07:06;;;;;;;68.03;37.57;;;;;;;;;;5126698;27;20191;-82
2023/04/05 07:09:32;;;;;;;55.67;34.80;;;;;;;;;;5098309;27;20266;-84
2023/04/05 07:12:00;;;;;;;57.27;36.37;;;;;;;;;;5133253;27;20280;-81
2023/04/05 07:14:26;;;;;;;63.07;37.97;;;;;;;;;;5096427;28;20277;-84
2023/04/05 07:16:52;;;;;;;58.13;35.40;;;;;;;;;;5106797;28;20692;-83
2023/04/05 07:19:18;;;;;;;69.03;36.43;;;;;;;;;;5106341;28;20203;-79
2023/04/05 07:21:44;;;;;;;55.20;33.93;;;;;;;;;;5110922;28;20312;-81
2023/04/05 07:24:10;;;;;;;58.87;33.80;;;;;;;;;;5094744;28;20573;-83
2023/04/05 07:26:36;;;;;;;56.13;35.00;;;;;;;;;;5093137;28;20177;-84
2023/04/05 07:29:07;;;;;;;56.40;32.57;;;;;;;;;;5097655;28;20643;-84
2023/04/05 07:31:33;;;;;;;51.57;32.73;;;;;;;;;;5099412;28;20197;-82
2023/04/05 07:34:00;;;;;;;50.57;31.50;;;;;;;;;;5099054;28;20237;-83
2023/04/05 07:36:27;;;;;;;59.50;31.97;;;;;;;;;;5098316;28;20216;-84
2023/04/05 07:38:56;;;;;;;54.47;32.77;;;;;;;;;;5103851;28;20225;-85
2023/04/05 07:41:24;;;;;;;53.80;32.33;;;;;;;;;;5105966;28;20262;-82
2023/04/05 07:43:50;;;;;;;51.70;31.17;;;;;;;;;;5106278;28;20278;-83
2023/04/05 07:46:16;;;;;;;54.67;28.93;;;;;;;;;;5106059;28;20263;-83
2023/04/05 07:48:42;;;;;;;49.03;27.97;;;;;;;;;;5106089;28;20211;-83
2023/04/05 07:51:10;;;;;;;49.53;28.93;;;;;;;;;;5095012;28;20611;-83
2023/04/05 07:53:36;;;;;;;42.30;26.40;;;;;;;;;;5104842;28;20616;-82
2023/04/05 07:56:08;;;;;;;44.13;26.03;;;;;;;;;;5105905;28;20179;-83
2023/04/05 07:58:34;;;;;;;34.90;22.30;;;;;;;;;;5100967;28;20202;-82
2023/04/05 08:01:01;;;;;;;38.80;21.37;;;;;;;;;;5097837;28;20191;-82
2023/04/05 08:03:28;;;;;;;42.23;22.90;;;;;;;;;;5092417;28;20632;-81
2023/04/05 08:05:54;;;;;;;36.60;20.87;;;;;;;;;;5095659;28;20187;-84
2023/04/05 08:08:20;;;;;;;34.90;20.93;;;;;;;;;;5099135;28;20180;-82
2023/04/05 08:10:46;;;;;;;33.07;20.63;;;;;;;;;;5099932;28;20176;-84
2023/04/05 08:13:12;;;;;;;37.47;18.83;;;;;;;;;;5106317;28;20612;-82
2023/04/05 08:15:40;;;;;;;31.53;18.47;;;;;;;;;;5107872;28;20349;-83
2023/04/05 08:18:06;;;;;;;36.90;18.63;;;;;;;;;;5093254;28;20253;-85
2023/04/05 08:20:37;;;;;;;31.87;18.03;;;;;;;;;;5097485;28;20184;-85
2023/04/05 08:23:03;;;;;;;34.40;19.20;;;;;;;;;;5102626;28;20183;-85
2023/04/05 08:25:29;;;;;;;30.90;18.43;;;;;;;;;;5104258;28;20199;-84
2023/04/05 08:27:55;;;;;;;26.93;14.80;;;;;;;;;;5097676;28;20211;-81
2023/04/05 08:30:22;;;;;;;31.40;16.27;;;;;;;;;;5089532;28;20229;-82
2023/04/05 08:32:48;;;;;;;27.20;15.67;;;;;;;;;;5107331;28;20168;-81
2023/04/05 08:35:15;;;;;;;29.57;17.83;;;;;;;;;;5107354;28;20229;-84
2023/04/05 08:37:41;;;;;;;22.13;14.50;;;;;;;;;;5098501;28;20295;-82
2023/04/05 08:40:07;;;;;;;26.10;15.00;;;;;;;;;;5095903;28;20257;-81
2023/04/05 08:42:40;;;;;;;24.00;14.70;;;;;;;;;;5092874;28;20225;-84
2023/04/05 08:45:09;;;;;;;25.80;15.97;;;;;;;;;;5108709;28;20246;-82
2023/04/05 08:47:36;;;;;;;26.83;15.43;;;;;;;;;;5095968;28;20176;-83
2023/04/05 08:50:02;;;;;;;24.57;14.00;;;;;;;;;;5102114;28;20176;-84
2023/04/05 08:52:30;;;;;;;19.80;11.90;;;;;;;;;;5106485;28;20271;-83
2023/04/05 08:54:56;;;;;;;19.53;9.53;;;;;;;;;;5109359;28;20623;-84
2023/04/05 08:57:28;;;;;;;20.43;10.70;;;;;;;;;;5092586;28;20203;-82
2023/04/05 08:59:55;;;;;;;12.67;8.47;;;;;;;;;;5090497;28;20527;-84
2023/04/05 09:02:23;;;;;;;12.57;7.60;;;;;;;;;;5096623;28;20229;-82
2023/04/05 09:04:49;;;;;;;11.07;7.23;;;;;;;;;;5096611;28;20226;-81
2023/04/05 09:07:16;;;;;;;14.33;7.83;;;;;;;;;;5099266;28;20180;-84
2023/04/05 09:09:44;;;;;;;16.17;8.50;;;;;;;;;;5111523;28;20208;-81
2023/04/05 09:12:10;;;;;;;16.53;8.63;;;;;;;;;;5096207;28;20196;-82
2023/04/05 09:14:38;;;;;;;13.57;8.50;;;;;;;;;;5103943;28;20219;-83
2023/04/05 09:17:04;;;;;;;14.70;8.90;;;;;;;;;;5105379;28;20215;-80
2023/04/05 09:19:30;;;;;;;17.93;10.40;;;;;;;;;;5099653;28;20252;-81
2023/04/05 09:21:57;;;;;;;16.10;8.90;;;;;;;;;;5100298;28;20635;-83
2023/04/05 09:24:53;;;;;;;15.80;9.60;;;;;;;;;;5095425;28;20171;-81
2023/04/05 09:27:19;;;;;;;13.37;8.47;;;;;;;;;;5088129;28;20275;-80
2023/04/05 09:29:46;;;;;;;13.27;9.00;;;;;;;;;;5094076;28;20171;-82
2023/04/05 09:32:13;;;;;;;16.40;8.50;;;;;;;;;;5106331;28;20640;-85
2023/04/05 09:34:40;;;;;;;15.20;8.60;;;;;;;;;;5101975;28;20502;-83
2023/04/05 09:37:15;;;;;;;11.53;8.07;;;;;;;;;;5096732;28;20954;-82
2023/04/05 09:39:42;;;;;;;12.03;7.77;;;;;;;;;;5097364;28;20514;-83
2023/04/05 09:42:09;;;;;;;12.87;7.67;;;;;;;;;;5110179;28;20175;-82
2023/04/05 09:44:50;;;;;;;10.93;7.50;;;;;;;;;;5099999;28;20173;-80
2023/04/05 09:47:17;;;;;;;12.27;6.53;;;;;;;;;;5106859;28;20312;-83
2023/04/05 09:49:44;;;;;;;12.30;8.07;;;;;;;;;;5106011;28;20173;-82
2023/04/05 09:52:20;;;;;;;11.60;8.30;;;;;;;;;;5099324;28;20253;-82
2023/04/05 09:54:46;;;;;;;17.40;8.53;;;;;;;;;;5097856;28;20176;-81
2023/04/05 09:57:12;;;;;;;14.50;8.93;;;;;;;;;;5095429;28;20739;-83
2023/04/05 09:59:41;;;;;;;13.63;9.33;;;;;;;;;;5094402;28;20184;-84
2023/04/05 10:02:07;;;;;;;9.80;7.03;;;;;;;;;;5104609;28;20207;-81
2023/04/05 10:04:40;;;;;;;11.73;7.57;;;;;;;;;;5108052;28;20176;-84
2023/04/05 10:07:09;;;;;;;11.90;6.77;;;;;;;;;;5112641;28;20187;-83
2023/04/05 10:09:35;;;;;;;12.23;6.93;;;;;;;;;;5095802;28;20167;-82
2023/04/05 10:12:02;;;;;;;11.37;7.27;;;;;;;;;;5094243;28;20195;-81
2023/04/05 10:14:28;;;;;;;12.93;8.47;;;;;;;;;;5103435;28;20227;-84
2023/04/05 10:17:15;;;;;;;13.97;8.43;;;;;;;;;;5106556;28;20204;-81
2023/04/05 10:19:41;;;;;;;16.23;9.10;;;;;;;;;;5107527;28;20237;-83
2023/04/05 10:22:13;;;;;;;15.33;7.97;;;;;;;;;;5109092;28;20176;-83
2023/04/05 10:24:45;;;;;;;12.10;8.27;;;;;;;;;;5095492;28;20177;-81
2023/04/05 10:27:11;;;;;;;12.83;8.00;;;;;;;;;;5094636;28;20560;-82
2023/04/05 10:29:50;;;;;;;9.43;7.20;;;;;;;;;;5098588;28;20207;-84
2023/04/05 10:32:24;;;;;;;7.97;5.90;;;;;;;;;;5105411;28;20206;-81
2023/04/05 10:35:10;;;;;;;7.77;4.83;;;;;;;;;;5107108;28;20264;-83
2023/04/05 10:37:51;;;;;;;8.40;4.30;;;;;;;;;;5022369;28;20244;-84
2023/04/05 10:40:19;;;;;;;9.83;4.70;;;;;;;;;;5025914;28;20198;-83
2023/04/05 10:42:46;;;;;;;12.93;4.90;;;;;;;;;;5015433;28;20534;-83
2023/04/05 10:45:16;;;;;;;7.47;4.10;;;;;;;;;;5015540;28;20174;-81
2023/04/05 10:47:44;;;;;;;6.03;4.50;;;;;;;;;;5002911;28;20179;-82
2023/04/05 10:50:12;;;;;;;7.33;4.57;;;;;;;;;;5026562;28;20201;-82
2023/04/05 10:52:39;;;;;;;10.17;4.70;;;;;;;;;;5024609;28;20186;-84
2023/04/05 10:55:06;;;;;;;6.47;4.50;;;;;;;;;;5022620;28;20186;-82
2023/04/05 10:57:32;;;;;;;7.90;4.63;;;;;;;;;;5013691;28;20286;-83
2023/04/05 10:59:59;;;;;;;7.20;3.77;;;;;;;;;;5010422;28;20193;-82
2023/04/05 11:02:25;;;;;;;7.13;3.90;;;;;;;;;;5013756;28;20194;-82
2023/04/05 11:04:55;;;;;;;5.97;3.93;;;;;;;;;;5028762;28;20210;-82
2023/04/05 11:07:21;;;;;;;8.63;4.63;;;;;;;;;;5019817;28;20279;-82
2023/04/05 11:09:53;;;;;;;6.37;5.00;;;;;;;;;;5028493;28;20221;-82
2023/04/05 11:12:19;;;;;;;6.43;4.40;;;;;;;;;;5013527;28;20228;-84
2023/04/05 11:14:45;;;;;;;5.37;3.97;;;;;;;;;;5053199;28;20290;-81
2023/04/05 11:17:25;;;;;;;8.27;5.07;;;;;;;;;;5106193;28;20907;-84
2023/04/05 11:19:51;;;;;;;7.57;4.47;;;;;;;;;;5105563;28;20577;-84
2023/04/05 11:22:29;;;;;;;19.40;6.00;;;;;;;;;;5096940;28;20179;-84
2023/04/05 11:24:57;;;;;;;6.53;4.57;;;;;;;;;;5095335;28;20178;-84
2023/04/05 11:27:27;;;;;;;6.23;4.70;;;;;;;;;;5108247;28;20164;-81
2023/04/05 11:29:53;;;;;;;9.30;4.70;;;;;;;;;;5108558;28;20228;-82
2023/04/05 11:32:20;;;;;;;7.57;4.80;;;;;;;;;;5100277;28;20180;-82
2023/04/05 11:34:58;;;;;;;6.97;4.33;;;;;;;;;;5097869;28;20173;-84
2023/04/05 11:37:44;;;;;;;8.63;4.67;;;;;;;;;;5098805;28;20195;-82
2023/04/05 11:40:25;;;;;;;6.07;4.03;;;;;;;;;;5096372;28;20297;-84
2023/04/05 11:42:57;;;;;;;7.13;4.37;;;;;;;;;;5091843;28;20612;-83
2023/04/05 11:45:24;;;;;;;5.37;4.07;;;;;;;;;;5092878;28;20203;-83
2023/04/05 11:47:50;;;;;;;6.83;4.70;;;;;;;;;;5105634;28;20180;-82
2023/04/05 11:50:16;;;;;;;7.83;4.30;;;;;;;;;;5097501;28;20284;-79
2023/04/05 11:52:42;;;;;;;8.00;5.37;;;;;;;;;;5096249;28;20215;-81
2023/04/05 11:55:10;;;;;;;6.77;4.73;;;;;;;;;;5109191;28;20184;-80
2023/04/05 11:57:36;;;;;;;7.00;4.37;;;;;;;;;;5091603;28;20203;-82
2023/04/05 12:00:03;;;;;;;5.63;4.60;;;;;;;;;;5096094;28;20184;-82
2023/04/05 12:02:34;;;;;;;7.57;4.60;;;;;;;;;;5101751;28;20282;-81
2023/04/05 12:05:00;;;;;;;7.73;4.50;;;;;;;;;;5103914;28;20179;-83
2023/04/05 12:07:28;;;;;;;7.50;4.53;;;;;;;;;;5107913;28;20175;-81
2023/04/05 12:09:57;;;;;;;7.60;4.50;;;;;;;;;;5107733;28;20178;-82
2023/04/05 12:12:23;;;;;;;6.80;4.47;;;;;;;;;;5106064;28;20176;-81
2023/04/05 12:14:49;;;;;;;11.07;4.97;;;;;;;;;;5108491;27;20215;-82
2023/04/05 12:17:15;;;;;;;5.20;4.03;;;;;;;;;;5124365;27;20195;-83
2023/04/05 12:19:41;;;;;;;7.97;5.00;;;;;;;;;;5126881;27;20193;-82
2023/04/05 12:22:08;;;;;;;6.13;3.90;;;;;;;;;;5114531;28;20189;-83
2023/04/05 12:24:34;;;;;;;5.37;4.30;;;;;;;;;;5111068;27;20170;-81
2023/04/05 12:27:00;;;;;;;9.67;4.57;;;;;;;;;;5126213;27;20191;-81
2023/04/05 12:29:26;;;;;;;4.90;4.20;;;;;;;;;;5113760;27;20240;-81
2023/04/05 12:31:56;;;;;;;6.43;4.50;;;;;;;;;;5109385;28;20559;-82
2023/04/05 12:34:25;;;;;;;8.27;4.83;;;;;;;;;;5098207;28;20234;-83
2023/04/05 12:36:51;;;;;;;8.40;4.17;;;;;;;;;;5112374;28;20675;-83
2023/04/05 12:39:17;;;;;;;6.47;4.47;;;;;;;;;;5128525;27;20179;-80
2023/04/05 12:41:43;;;;;;;6.17;4.77;;;;;;;;;;5108302;28;20191;-82
2023/04/05 12:44:16;;;;;;;6.63;4.60;;;;;;;;;;5108596;28;20179;-81
2023/04/05 12:46:45;;;;;;;5.93;4.40;;;;;;;;;;5111445;28;20179;-83
2023/04/05 12:49:12;;;;;;;7.63;4.33;;;;;;;;;;5115301;28;20195;-84
2023/04/05 12:51:45;;;;;;;8.83;4.40;;;;;;;;;;5114317;28;20355;-84
2023/04/05 12:54:15;;;;;;;7.50;5.00;;;;;;;;;;5098509;28;20171;-83
2023/04/05 12:56:41;;;;;;;7.00;4.07;;;;;;;;;;5103202;28;20207;-82
2023/04/05 12:59:07;;;;;;;5.20;4.20;;;;;;;;;;5103785;28;20190;-86
2023/04/05 13:01:34;;;;;;;13.03;4.27;;;;;;;;;;5127253;28;20259;-85
2023/04/05 13:04:00;;;;;;;9.13;4.27;;;;;;;;;;5094430;28;20221;-83
2023/04/05 13:06:27;;;;;;;4.77;3.67;;;;;;;;;;5096385;28;20171;-84
2023/04/05 13:08:53;;;;;;;8.00;4.33;;;;;;;;;;5114449;28;20253;-85
2023/04/05 13:11:19;;;;;;;12.97;4.17;;;;;;;;;;5128201;28;20259;-83
2023/04/05 13:13:45;;;;;;;7.60;4.13;;;;;;;;;;5123550;28;20176;-84
2023/04/05 13:16:11;;;;;;;7.30;4.40;;;;;;;;;;5108290;28;20214;-85
2023/04/05 13:18:37;;;;;;;7.83;4.53;;;;;;;;;;5107322;28;20222;-83
2023/04/05 13:21:08;;;;;;;8.00;4.73;;;;;;;;;;5092033;28;20184;-83
2023/04/05 13:23:34;;;;;;;7.97;4.57;;;;;;;;;;5101685;28;20198;-86
2023/04/05 13:26:00;;;;;;;6.20;4.83;;;;;;;;;;5103376;28;20182;-86
2023/04/05 13:28:26;;;;;;;7.93;4.90;;;;;;;;;;5108527;28;20186;-84
2023/04/05 13:30:52;;;;;;;5.23;4.37;;;;;;;;;;5090963;28;20183;-85
2023/04/05 13:33:19;;;;;;;7.33;4.93;;;;;;;;;;5105058;28;20184;-85
2023/04/05 13:35:45;;;;;;;8.83;4.93;;;;;;;;;;5096916;28;20628;-85
2023/04/05 13:38:11;;;;;;;6.60;4.77;;;;;;;;;;5094843;28;20239;-85
2023/04/05 13:40:37;;;;;;;6.37;4.80;;;;;;;;;;5097091;28;20180;-86
2023/04/05 13:43:03;;;;;;;8.27;4.87;;;;;;;;;;5090231;28;20542;-84
2023/04/05 13:45:30;;;;;;;6.93;4.67;;;;;;;;;;5107248;28;20168;-84
2023/04/05 13:47:57;;;;;;;8.90;4.60;;;;;;;;;;5097734;28;20287;-84
2023/04/05 13:50:23;;;;;;;6.57;4.00;;;;;;;;;;5103156;28;20194;-84
2023/04/05 13:52:50;;;;;;;7.10;5.07;;;;;;;;;;5104781;28;20188;-84
2023/04/05 13:55:16;;;;;;;7.60;4.43;;;;;;;;;;5111477;28;20191;-84
2023/04/05 13:57:42;;;;;;;6.00;4.73;;;;;;;;;;5097448;28;20196;-83
2023/04/05 14:00:08;;;;;;;9.03;5.40;;;;;;;;;;5099613;28;20179;-85
2023/04/05 14:02:34;;;;;;;10.70;5.90;;;;;;;;;;5110483;28;20275;-83
2023/04/05 14:05:00;;;;;;;10.53;5.70;;;;;;;;;;5108317;28;20641;-82
2023/04/05 14:07:26;;;;;;;9.23;4.93;;;;;;;;;;5097591;28;20202;-83
2023/04/05 14:09:52;;;;;;;7.00;5.03;;;;;;;;;;5094780;28;20171;-85
2023/04/05 14:12:19;;;;;;;7.63;4.90;;;;;;;;;;5100771;28;20168;-82
2023/04/05 14:14:45;;;;;;;8.03;4.67;;;;;;;;;;5111118;28;20211;-82
2023/04/05 14:17:11;;;;;;;7.80;4.67;;;;;;;;;;5108045;28;20241;-83
2023/04/05 14:19:37;;;;;;;8.33;4.97;;;;;;;;;;5108364;28;20271;-85
2023/04/05 14:22:03;;;;;;;9.93;5.20;;;;;;;;;;5093876;28;20263;-84
2023/04/05 14:24:29;;;;;;;7.80;5.00;;;;;;;;;;5107202;28;20573;-85
2023/04/05 14:26:56;;;;;;;6.03;4.53;;;;;;;;;;5106904;28;20834;-82
2023/04/05 14:29:22;;;;;;;9.37;4.83;;;;;;;;;;5105991;28;20206;-83